NCAR-RAP Real-Time Weather Data

Output produced by METARs form (08 May 2021  01:06 UTC)
found at http://weather.rap.ucar.edu/surface/
 
KXWA 080051Z AUTO 11027G40KT 10SM BKN110 14/M08 A2992 RMK AO2 PK WND 12040/0042 SLP148 T01391078
KXWA 072351Z AUTO 11023G33KT 10SM CLR 16/M07 A2992 RMK AO2 PK WND 13036/2312 SLP149 T01561072 10183 20144 56024
KXWA 072251Z AUTO 12017G36KT 10SM CLR 17/M07 A2994 RMK AO2 PK WND 11036/2247 SLP155 T01721067
KXWA 072151Z AUTO 12018G32KT 10SM CLR 18/M07 A2997 RMK AO2 PK WND 15036/2101 SLP166 T01831072
KXWA 072051Z AUTO 13016G34KT 10SM CLR 18/M07 A3000 RMK AO2 PK WND 14034/2009 SLP173 T01781072 56025
KXWA 071951Z AUTO 13017G35KT 10SM CLR 17/M07 A3002 RMK AO2 PK WND 12035/1942 SLP181 T01671072
KXWA 071851Z AUTO 13018G31KT 10SM CLR 16/M07 A3004 RMK AO2 PK WND 14032/1838 SLP190 T01561067
KXWA 071751Z AUTO 12015G30KT 10SM CLR 14/M06 A3008 RMK AO2 PK WND 14033/1740 SLP202 T01441061 10144 20028 58017
KXWA 071651Z AUTO 14015G29KT 10SM CLR 13/M06 A3010 RMK AO2 PK WND 14030/1631 SLP208 T01281056
KXWA 071551Z AUTO 13014G29KT 10SM CLR 11/M05 A3012 RMK AO2 PK WND 15032/1508 SLP216 T01061050
KXWA 071451Z AUTO 13016G28KT 10SM CLR 08/M05 A3013 RMK AO2 PK WND 13029/1355 SLP220 T00831050 58010
KXWA 071351Z AUTO 13012G27KT 10SM CLR 06/M05 A3014 RMK AO2 PK WND 13027/1348 SLP225 T00611050
KXWA 071251Z AUTO 12010KT 10SM CLR 04/M05 A3016 RMK AO2 SLP228 T00391050
KXWA 071151Z AUTO 12009KT 10SM CLR 03/M06 A3016 RMK AO2 SLP230 T00281056 10061 20017 55002
KXWA 071051Z AUTO 10009KT 10SM CLR 03/M06 A3016 RMK AO2 SLP229 T00281061